This is the latest recevied weather packets stored in our database for station/object KD1KE. If no packets are shown the sender has not sent any weather packets the latest 1 day(s).
| Time | Temp. | Humidity | Pressure | Rain* | Wind** | Luminosity | Snow |
|---|---|---|---|---|---|---|---|
| 1836274786 | 7.22° C | 80% | 1019.8 hPa | 0 mm | 0 m/s | - | - |
| 1836274125 | 7.22° C | 79% | 1019.5 hPa | 0 mm | 0 m/s | - | - |
| 1778044529 | 12.22° C | 83% | 1007.4 hPa | 0 mm | 0 m/s | - | - |
| 1778044379 | 12.22° C | 83% | 1007.5 hPa | 0 mm | 0 m/s | - | - |
| 1778043989 | 12.22° C | 83% | 1007.4 hPa | 0 mm | 0 m/s | - | - |
| 1778043721 | 12.22° C | 83% | 1007.4 hPa | 0 mm | 0 m/s | - | - |
| 1778043449 | 12.22° C | 82% | 1007.4 hPa | 0 mm | 0 m/s | - | - |
| 1778043061 | 12.78° C | 82% | 1007.4 hPa | 0 mm | 0 m/s | - | - |
| 1778042911 | 12.78° C | 82% | 1007.4 hPa | 0 mm | 0 m/s | - | - |
| 1778042402 | 12.78° C | 81% | 1007.2 hPa | 0 mm | 0 m/s | - | - |
| 1778042370 | 12.78° C | 81% | 1007.3 hPa | 0 mm | 0 m/s | - | - |
| 1778041831 | 12.78° C | 81% | 1007.2 hPa | 0 mm | 0.45 m/s, 88° | - | - |
| 1778041742 | 12.78° C | 81% | 1007.2 hPa | 0 mm | 0.45 m/s, 66° | - | - |
| 1778041291 | 13.33° C | 80% | 1007.2 hPa | 0 mm | 0.45 m/s, 232° | - | - |
| 1778041082 | 13.33° C | 80% | 1007.3 hPa | 0 mm | 0 m/s | - | - |
| 1778040752 | 13.33° C | 80% | 1007.1 hPa | 0 mm | 0 m/s | - | - |
| 1778040424 | 13.33° C | 80% | 1007.1 hPa | 0 mm | 0 m/s | - | - |
| 1778040212 | 13.33° C | 79% | 1007 hPa | 0 mm | 0 m/s | - | - |
| 1778039765 | 13.33° C | 79% | 1007 hPa | 0 mm | 0.45 m/s, 262° | - | - |
| 1778039673 | 13.33° C | 79% | 1007 hPa | 0 mm | 0.45 m/s, 258° | - | - |
| 1778039104 | 13.89° C | 79% | 1007.1 hPa | 0 mm | 0 m/s | - | - |
| 1778038594 | 13.89° C | 78% | 1007.2 hPa | 0 mm | 0 m/s | - | - |
| 1778038446 | 13.89° C | 78% | 1007.2 hPa | 0 mm | 0 m/s | - | - |
| 1778038054 | 14.44° C | 78% | 1007.2 hPa | 0 mm | 0 m/s | - | - |
| 1778037786 | 14.44° C | 79% | 1007.1 hPa | 0 mm | 0 m/s | - | - |
* Rain latest hour (hover to see other rain measurements)
** Current wind speed in m/s (hover to see current wind gust speed)